sensor_id;sensor_type;location;lat;lon;timestamp;P1;durP1;ratioP1;P2;durP2;ratioP2
75061;SDS011;63641;46.526;24.612;2023-05-07T00:00:57;4.38;;;2.80;;
75061;SDS011;63641;46.526;24.612;2023-05-07T00:03:25;3.13;;;2.67;;
75061;SDS011;63641;46.526;24.612;2023-05-07T00:05:53;3.17;;;2.80;;
75061;SDS011;63641;46.526;24.612;2023-05-07T00:08:20;2.65;;;2.45;;
75061;SDS011;63641;46.526;24.612;2023-05-07T00:10:50;4.43;;;2.83;;
75061;SDS011;63641;46.526;24.612;2023-05-07T00:13:17;4.80;;;2.60;;
75061;SDS011;63641;46.526;24.612;2023-05-07T00:15:44;3.25;;;2.95;;
75061;SDS011;63641;46.526;24.612;2023-05-07T00:18:11;4.53;;;2.67;;
75061;SDS011;63641;46.526;24.612;2023-05-07T00:20:37;2.65;;;2.45;;
75061;SDS011;63641;46.526;24.612;2023-05-07T00:23:04;3.13;;;2.33;;
75061;SDS011;63641;46.526;24.612;2023-05-07T00:25:31;4.20;;;2.50;;
75061;SDS011;63641;46.526;24.612;2023-05-07T00:27:57;2.95;;;2.55;;
75061;SDS011;63641;46.526;24.612;2023-05-07T00:30:29;3.05;;;2.75;;
75061;SDS011;63641;46.526;24.612;2023-05-07T00:32:56;3.55;;;3.17;;
75061;SDS011;63641;46.526;24.612;2023-05-07T00:35:23;3.63;;;2.75;;
75061;SDS011;63641;46.526;24.612;2023-05-07T00:37:50;3.00;;;2.70;;
75061;SDS011;63641;46.526;24.612;2023-05-07T00:40:16;2.65;;;2.45;;
75061;SDS011;63641;46.526;24.612;2023-05-07T00:42:43;5.75;;;2.83;;
75061;SDS011;63641;46.526;24.612;2023-05-07T00:45:13;3.53;;;2.85;;
75061;SDS011;63641;46.526;24.612;2023-05-07T00:47:40;3.00;;;2.70;;
75061;SDS011;63641;46.526;24.612;2023-05-07T00:50:08;3.63;;;2.75;;
75061;SDS011;63641;46.526;24.612;2023-05-07T00:52:37;3.25;;;2.75;;
75061;SDS011;63641;46.526;24.612;2023-05-07T00:55:04;2.85;;;2.60;;
75061;SDS011;63641;46.526;24.612;2023-05-07T00:57:39;2.60;;;2.40;;
75061;SDS011;63641;46.526;24.612;2023-05-07T01:00:08;4.72;;;2.65;;
75061;SDS011;63641;46.526;24.612;2023-05-07T01:02:36;4.30;;;2.75;;
75061;SDS011;63641;46.526;24.612;2023-05-07T01:05:02;3.08;;;2.75;;
75061;SDS011;63641;46.526;24.612;2023-05-07T01:07:33;2.60;;;2.40;;
75061;SDS011;63641;46.526;24.612;2023-05-07T01:10:00;3.63;;;2.90;;
75061;SDS011;63641;46.526;24.612;2023-05-07T01:12:29;3.15;;;2.55;;
75061;SDS011;63641;46.526;24.612;2023-05-07T01:14:57;3.47;;;2.80;;
75061;SDS011;63641;46.526;24.612;2023-05-07T01:17:24;5.07;;;2.92;;
75061;SDS011;63641;46.526;24.612;2023-05-07T01:19:51;4.35;;;2.95;;
75061;SDS011;63641;46.526;24.612;2023-05-07T01:22:32;2.88;;;2.58;;
75061;SDS011;63641;46.526;24.612;2023-05-07T01:25:00;3.67;;;2.75;;
75061;SDS011;63641;46.526;24.612;2023-05-07T01:27:28;3.13;;;2.85;;
75061;SDS011;63641;46.526;24.612;2023-05-07T01:29:55;3.55;;;2.55;;
75061;SDS011;63641;46.526;24.612;2023-05-07T01:32:24;3.63;;;2.92;;
75061;SDS011;63641;46.526;24.612;2023-05-07T01:34:55;3.88;;;2.80;;
75061;SDS011;63641;46.526;24.612;2023-05-07T01:37:24;3.30;;;3.00;;
75061;SDS011;63641;46.526;24.612;2023-05-07T01:39:52;3.33;;;3.03;;
75061;SDS011;63641;46.526;24.612;2023-05-07T01:42:20;3.97;;;2.88;;
75061;SDS011;63641;46.526;24.612;2023-05-07T01:44:47;3.60;;;2.50;;
75061;SDS011;63641;46.526;24.612;2023-05-07T01:47:14;4.88;;;2.75;;
75061;SDS011;63641;46.526;24.612;2023-05-07T01:49:42;3.45;;;3.15;;
75061;SDS011;63641;46.526;24.612;2023-05-07T01:52:10;3.20;;;2.90;;
75061;SDS011;63641;46.526;24.612;2023-05-07T01:54:37;3.17;;;2.88;;
75061;SDS011;63641;46.526;24.612;2023-05-07T01:57:04;4.93;;;2.80;;
75061;SDS011;63641;46.526;24.612;2023-05-07T01:59:31;3.67;;;2.78;;
75061;SDS011;63641;46.526;24.612;2023-05-07T02:01:58;3.35;;;2.90;;
75061;SDS011;63641;46.526;24.612;2023-05-07T02:04:25;4.60;;;2.60;;
75061;SDS011;63641;46.526;24.612;2023-05-07T02:06:52;4.53;;;3.13;;
75061;SDS011;63641;46.526;24.612;2023-05-07T02:09:19;3.72;;;2.40;;
75061;SDS011;63641;46.526;24.612;2023-05-07T02:11:46;5.00;;;2.75;;
75061;SDS011;63641;46.526;24.612;2023-05-07T02:14:12;3.45;;;2.70;;
75061;SDS011;63641;46.526;24.612;2023-05-07T02:16:39;2.88;;;2.65;;
75061;SDS011;63641;46.526;24.612;2023-05-07T02:19:06;3.10;;;2.80;;
75061;SDS011;63641;46.526;24.612;2023-05-07T02:21:33;5.40;;;2.83;;
75061;SDS011;63641;46.526;24.612;2023-05-07T02:23:59;4.20;;;3.03;;
75061;SDS011;63641;46.526;24.612;2023-05-07T02:26:26;3.03;;;2.67;;
75061;SDS011;63641;46.526;24.612;2023-05-07T02:28:53;3.72;;;2.90;;
75061;SDS011;63641;46.526;24.612;2023-05-07T02:31:20;3.50;;;2.50;;
75061;SDS011;63641;46.526;24.612;2023-05-07T02:33:46;4.07;;;2.70;;
75061;SDS011;63641;46.526;24.612;2023-05-07T02:36:13;2.67;;;2.47;;
75061;SDS011;63641;46.526;24.612;2023-05-07T02:38:40;4.60;;;2.70;;
75061;SDS011;63641;46.526;24.612;2023-05-07T02:41:07;3.65;;;2.85;;
75061;SDS011;63641;46.526;24.612;2023-05-07T02:43:34;3.20;;;2.70;;
75061;SDS011;63641;46.526;24.612;2023-05-07T02:46:04;3.05;;;2.78;;
75061;SDS011;63641;46.526;24.612;2023-05-07T02:48:32;3.00;;;2.70;;
75061;SDS011;63641;46.526;24.612;2023-05-07T02:50:59;2.67;;;2.47;;
75061;SDS011;63641;46.526;24.612;2023-05-07T02:53:26;3.38;;;2.60;;
75061;SDS011;63641;46.526;24.612;2023-05-07T02:55:54;3.17;;;2.88;;
75061;SDS011;63641;46.526;24.612;2023-05-07T02:58:24;3.75;;;2.80;;
75061;SDS011;63641;46.526;24.612;2023-05-07T03:00:51;2.95;;;2.72;;
75061;SDS011;63641;46.526;24.612;2023-05-07T03:03:21;3.28;;;2.78;;
75061;SDS011;63641;46.526;24.612;2023-05-07T03:05:48;3.20;;;2.90;;
75061;SDS011;63641;46.526;24.612;2023-05-07T03:08:14;3.08;;;2.88;;
75061;SDS011;63641;46.526;24.612;2023-05-07T03:10:41;3.17;;;2.72;;
75061;SDS011;63641;46.526;24.612;2023-05-07T03:13:08;4.70;;;2.78;;
75061;SDS011;63641;46.526;24.612;2023-05-07T03:15:35;4.50;;;2.63;;
75061;SDS011;63641;46.526;24.612;2023-05-07T03:18:02;3.70;;;3.05;;
75061;SDS011;63641;46.526;24.612;2023-05-07T03:20:29;3.72;;;2.97;;
75061;SDS011;63641;46.526;24.612;2023-05-07T03:22:56;3.15;;;2.53;;
75061;SDS011;63641;46.526;24.612;2023-05-07T03:25:23;6.90;;;3.08;;
75061;SDS011;63641;46.526;24.612;2023-05-07T03:27:51;3.17;;;2.88;;
75061;SDS011;63641;46.526;24.612;2023-05-07T03:30:17;3.45;;;3.15;;
75061;SDS011;63641;46.526;24.612;2023-05-07T03:32:45;3.45;;;2.80;;
75061;SDS011;63641;46.526;24.612;2023-05-07T03:35:12;3.35;;;2.80;;
75061;SDS011;63641;46.526;24.612;2023-05-07T03:37:38;3.97;;;3.13;;
75061;SDS011;63641;46.526;24.612;2023-05-07T03:40:06;3.50;;;2.70;;
75061;SDS011;63641;46.526;24.612;2023-05-07T03:42:34;3.63;;;2.88;;
75061;SDS011;63641;46.526;24.612;2023-05-07T03:45:01;5.13;;;3.00;;
75061;SDS011;63641;46.526;24.612;2023-05-07T03:47:28;5.00;;;3.05;;
75061;SDS011;63641;46.526;24.612;2023-05-07T03:49:55;3.85;;;2.78;;
75061;SDS011;63641;46.526;24.612;2023-05-07T03:52:22;3.45;;;2.85;;
75061;SDS011;63641;46.526;24.612;2023-05-07T03:54:52;3.40;;;2.83;;
75061;SDS011;63641;46.526;24.612;2023-05-07T03:57:20;4.40;;;2.92;;
75061;SDS011;63641;46.526;24.612;2023-05-07T03:59:46;4.95;;;3.28;;
75061;SDS011;63641;46.526;24.612;2023-05-07T04:02:13;3.33;;;2.70;;
75061;SDS011;63641;46.526;24.612;2023-05-07T04:04:40;3.55;;;2.83;;
75061;SDS011;63641;46.526;24.612;2023-05-07T04:07:07;2.67;;;2.47;;
75061;SDS011;63641;46.526;24.612;2023-05-07T04:09:34;2.67;;;2.47;;
75061;SDS011;63641;46.526;24.612;2023-05-07T04:12:01;2.72;;;2.45;;
75061;SDS011;63641;46.526;24.612;2023-05-07T04:14:27;2.70;;;2.50;;
75061;SDS011;63641;46.526;24.612;2023-05-07T04:16:54;2.85;;;2.55;;
75061;SDS011;63641;46.526;24.612;2023-05-07T04:19:21;4.97;;;2.90;;
75061;SDS011;63641;46.526;24.612;2023-05-07T04:21:48;3.38;;;3.08;;
75061;SDS011;63641;46.526;24.612;2023-05-07T04:24:15;3.03;;;2.42;;
75061;SDS011;63641;46.526;24.612;2023-05-07T04:26:42;3.17;;;2.88;;
75061;SDS011;63641;46.526;24.612;2023-05-07T04:29:09;3.17;;;2.65;;
75061;SDS011;63641;46.526;24.612;2023-05-07T04:31:35;7.00;;;2.80;;
75061;SDS011;63641;46.526;24.612;2023-05-07T04:34:02;3.47;;;2.90;;
75061;SDS011;63641;46.526;24.612;2023-05-07T04:36:30;3.00;;;2.80;;
75061;SDS011;63641;46.526;24.612;2023-05-07T04:38:57;3.15;;;2.70;;
75061;SDS011;63641;46.526;24.612;2023-05-07T04:41:24;3.28;;;2.97;;
75061;SDS011;63641;46.526;24.612;2023-05-07T04:43:51;3.78;;;3.20;;
75061;SDS011;63641;46.526;24.612;2023-05-07T04:46:18;3.55;;;2.70;;
75061;SDS011;63641;46.526;24.612;2023-05-07T04:48:45;3.00;;;2.80;;
75061;SDS011;63641;46.526;24.612;2023-05-07T04:51:11;5.68;;;3.90;;
75061;SDS011;63641;46.526;24.612;2023-05-07T04:53:38;7.70;;;4.68;;
75061;SDS011;63641;46.526;24.612;2023-05-07T04:56:05;7.95;;;4.95;;
75061;SDS011;63641;46.526;24.612;2023-05-07T04:58:32;5.93;;;4.72;;
75061;SDS011;63641;46.526;24.612;2023-05-07T05:00:59;4.85;;;4.22;;
75061;SDS011;63641;46.526;24.612;2023-05-07T05:03:26;4.10;;;3.58;;
75061;SDS011;63641;46.526;24.612;2023-05-07T05:05:53;4.57;;;3.05;;
75061;SDS011;63641;46.526;24.612;2023-05-07T05:08:20;3.13;;;2.60;;
75061;SDS011;63641;46.526;24.612;2023-05-07T05:10:50;5.88;;;3.45;;
75061;SDS011;63641;46.526;24.612;2023-05-07T05:13:17;5.13;;;3.00;;
75061;SDS011;63641;46.526;24.612;2023-05-07T05:15:44;3.80;;;2.72;;
75061;SDS011;63641;46.526;24.612;2023-05-07T05:18:11;4.38;;;2.72;;
75061;SDS011;63641;46.526;24.612;2023-05-07T05:20:38;3.88;;;2.65;;
75061;SDS011;63641;46.526;24.612;2023-05-07T05:23:05;2.92;;;2.40;;
75061;SDS011;63641;46.526;24.612;2023-05-07T05:25:34;5.28;;;2.63;;
75061;SDS011;63641;46.526;24.612;2023-05-07T05:28:00;4.00;;;2.70;;
75061;SDS011;63641;46.526;24.612;2023-05-07T05:30:27;4.10;;;2.50;;
75061;SDS011;63641;46.526;24.612;2023-05-07T05:32:54;3.45;;;2.67;;
75061;SDS011;63641;46.526;24.612;2023-05-07T05:35:21;2.75;;;2.55;;
75061;SDS011;63641;46.526;24.612;2023-05-07T05:37:48;4.55;;;2.53;;
75061;SDS011;63641;46.526;24.612;2023-05-07T05:40:15;7.25;;;2.90;;
75061;SDS011;63641;46.526;24.612;2023-05-07T05:42:41;3.47;;;2.60;;
75061;SDS011;63641;46.526;24.612;2023-05-07T05:45:08;2.53;;;2.30;;
75061;SDS011;63641;46.526;24.612;2023-05-07T05:47:35;3.38;;;2.45;;
75061;SDS011;63641;46.526;24.612;2023-05-07T05:50:02;4.60;;;2.50;;
75061;SDS011;63641;46.526;24.612;2023-05-07T05:52:29;16.05;;;3.10;;
75061;SDS011;63641;46.526;24.612;2023-05-07T05:54:56;4.25;;;2.45;;
75061;SDS011;63641;46.526;24.612;2023-05-07T05:57:22;3.67;;;2.60;;
75061;SDS011;63641;46.526;24.612;2023-05-07T05:59:51;3.72;;;2.70;;
75061;SDS011;63641;46.526;24.612;2023-05-07T06:02:18;3.17;;;2.80;;
75061;SDS011;63641;46.526;24.612;2023-05-07T06:04:45;2.90;;;2.70;;
75061;SDS011;63641;46.526;24.612;2023-05-07T06:07:12;3.38;;;2.95;;
75061;SDS011;63641;46.526;24.612;2023-05-07T06:09:39;3.90;;;2.78;;
75061;SDS011;63641;46.526;24.612;2023-05-07T06:12:05;3.08;;;2.75;;
75061;SDS011;63641;46.526;24.612;2023-05-07T06:14:32;4.38;;;3.97;;
75061;SDS011;63641;46.526;24.612;2023-05-07T06:17:00;5.43;;;2.85;;
75061;SDS011;63641;46.526;24.612;2023-05-07T06:19:27;3.10;;;2.80;;
75061;SDS011;63641;46.526;24.612;2023-05-07T06:21:54;5.90;;;3.28;;
75061;SDS011;63641;46.526;24.612;2023-05-07T06:24:22;4.13;;;3.70;;
75061;SDS011;63641;46.526;24.612;2023-05-07T06:26:50;3.10;;;2.80;;
75061;SDS011;63641;46.526;24.612;2023-05-07T06:29:17;2.90;;;2.60;;
75061;SDS011;63641;46.526;24.612;2023-05-07T06:31:44;2.60;;;2.15;;
75061;SDS011;63641;46.526;24.612;2023-05-07T06:34:11;5.50;;;2.63;;
75061;SDS011;63641;46.526;24.612;2023-05-07T06:36:40;4.38;;;2.50;;
75061;SDS011;63641;46.526;24.612;2023-05-07T06:39:07;3.03;;;2.70;;
75061;SDS011;63641;46.526;24.612;2023-05-07T06:41:34;3.42;;;2.55;;
75061;SDS011;63641;46.526;24.612;2023-05-07T06:44:04;2.90;;;2.45;;
75061;SDS011;63641;46.526;24.612;2023-05-07T06:46:31;4.15;;;2.80;;
75061;SDS011;63641;46.526;24.612;2023-05-07T06:48:58;3.60;;;2.33;;
75061;SDS011;63641;46.526;24.612;2023-05-07T06:51:25;3.00;;;2.70;;
75061;SDS011;63641;46.526;24.612;2023-05-07T06:53:51;3.55;;;2.45;;
75061;SDS011;63641;46.526;24.612;2023-05-07T06:56:18;2.80;;;2.50;;
75061;SDS011;63641;46.526;24.612;2023-05-07T06:58:45;2.50;;;2.30;;
75061;SDS011;63641;46.526;24.612;2023-05-07T07:01:11;4.63;;;2.67;;
75061;SDS011;63641;46.526;24.612;2023-05-07T07:03:38;3.88;;;2.30;;
75061;SDS011;63641;46.526;24.612;2023-05-07T07:06:05;2.92;;;2.40;;
75061;SDS011;63641;46.526;24.612;2023-05-07T07:08:32;3.15;;;2.40;;
75061;SDS011;63641;46.526;24.612;2023-05-07T07:10:59;10.00;;;2.50;;
75061;SDS011;63641;46.526;24.612;2023-05-07T07:13:26;4.30;;;2.40;;
75061;SDS011;63641;46.526;24.612;2023-05-07T07:15:53;3.17;;;2.15;;
75061;SDS011;63641;46.526;24.612;2023-05-07T07:18:20;4.93;;;2.42;;
75061;SDS011;63641;46.526;24.612;2023-05-07T07:20:50;2.45;;;2.25;;
75061;SDS011;63641;46.526;24.612;2023-05-07T07:23:17;2.80;;;2.28;;
75061;SDS011;63641;46.526;24.612;2023-05-07T07:25:43;3.03;;;2.20;;
75061;SDS011;63641;46.526;24.612;2023-05-07T07:28:10;4.85;;;2.67;;
75061;SDS011;63641;46.526;24.612;2023-05-07T07:30:37;3.53;;;2.53;;
75061;SDS011;63641;46.526;24.612;2023-05-07T07:33:05;4.05;;;2.28;;
75061;SDS011;63641;46.526;24.612;2023-05-07T07:35:32;2.97;;;2.67;;
75061;SDS011;63641;46.526;24.612;2023-05-07T07:37:59;6.03;;;2.47;;
75061;SDS011;63641;46.526;24.612;2023-05-07T07:40:26;3.60;;;2.65;;
75061;SDS011;63641;46.526;24.612;2023-05-07T07:42:53;4.30;;;2.40;;
75061;SDS011;63641;46.526;24.612;2023-05-07T07:45:20;5.20;;;2.55;;
75061;SDS011;63641;46.526;24.612;2023-05-07T07:47:47;2.33;;;2.13;;
75061;SDS011;63641;46.526;24.612;2023-05-07T07:50:14;5.22;;;2.45;;
75061;SDS011;63641;46.526;24.612;2023-05-07T07:53:01;3.33;;;2.40;;
75061;SDS011;63641;46.526;24.612;2023-05-07T07:55:28;3.08;;;2.40;;
75061;SDS011;63641;46.526;24.612;2023-05-07T07:57:54;4.15;;;2.65;;
75061;SDS011;63641;46.526;24.612;2023-05-07T08:00:21;3.70;;;2.65;;
75061;SDS011;63641;46.526;24.612;2023-05-07T08:02:48;2.65;;;2.45;;
75061;SDS011;63641;46.526;24.612;2023-05-07T08:05:15;3.53;;;2.60;;
75061;SDS011;63641;46.526;24.612;2023-05-07T08:07:42;3.45;;;2.60;;
75061;SDS011;63641;46.526;24.612;2023-05-07T08:10:09;3.55;;;2.80;;
75061;SDS011;63641;46.526;24.612;2023-05-07T08:12:36;3.55;;;2.78;;
75061;SDS011;63641;46.526;24.612;2023-05-07T08:15:03;2.65;;;2.10;;
75061;SDS011;63641;46.526;24.612;2023-05-07T08:17:30;2.60;;;2.40;;
75061;SDS011;63641;46.526;24.612;2023-05-07T08:19:56;2.60;;;2.40;;
75061;SDS011;63641;46.526;24.612;2023-05-07T08:22:23;3.65;;;2.60;;
75061;SDS011;63641;46.526;24.612;2023-05-07T08:24:50;2.83;;;2.50;;
75061;SDS011;63641;46.526;24.612;2023-05-07T08:27:17;3.13;;;2.55;;
75061;SDS011;63641;46.526;24.612;2023-05-07T08:29:44;3.03;;;2.72;;
75061;SDS011;63641;46.526;24.612;2023-05-07T08:32:14;2.63;;;2.42;;
75061;SDS011;63641;46.526;24.612;2023-05-07T08:34:41;2.72;;;2.53;;
75061;SDS011;63641;46.526;24.612;2023-05-07T08:37:07;3.83;;;2.85;;
75061;SDS011;63641;46.526;24.612;2023-05-07T08:39:34;2.92;;;2.38;;
75061;SDS011;63641;46.526;24.612;2023-05-07T08:42:01;4.05;;;2.30;;
75061;SDS011;63641;46.526;24.612;2023-05-07T08:44:34;2.85;;;2.65;;
75061;SDS011;63641;46.526;24.612;2023-05-07T08:47:04;3.45;;;2.20;;
75061;SDS011;63641;46.526;24.612;2023-05-07T08:49:33;2.88;;;2.58;;
75061;SDS011;63641;46.526;24.612;2023-05-07T08:52:01;3.65;;;2.60;;
75061;SDS011;63641;46.526;24.612;2023-05-07T08:54:28;3.25;;;2.42;;
75061;SDS011;63641;46.526;24.612;2023-05-07T08:56:55;3.70;;;2.53;;
75061;SDS011;63641;46.526;24.612;2023-05-07T08:59:22;3.50;;;2.75;;
75061;SDS011;63641;46.526;24.612;2023-05-07T09:01:49;5.25;;;2.80;;
75061;SDS011;63641;46.526;24.612;2023-05-07T09:04:16;3.47;;;2.50;;
75061;SDS011;63641;46.526;24.612;2023-05-07T09:06:43;3.75;;;2.42;;
75061;SDS011;63641;46.526;24.612;2023-05-07T09:09:09;3.78;;;2.50;;
75061;SDS011;63641;46.526;24.612;2023-05-07T09:11:43;5.18;;;2.85;;
75061;SDS011;63641;46.526;24.612;2023-05-07T09:14:10;4.85;;;2.40;;
75061;SDS011;63641;46.526;24.612;2023-05-07T09:16:37;3.45;;;2.50;;
75061;SDS011;63641;46.526;24.612;2023-05-07T09:19:04;3.65;;;2.60;;
75061;SDS011;63641;46.526;24.612;2023-05-07T09:21:31;3.00;;;2.70;;
75061;SDS011;63641;46.526;24.612;2023-05-07T09:23:57;2.70;;;2.50;;
75061;SDS011;63641;46.526;24.612;2023-05-07T09:26:24;3.03;;;2.50;;
75061;SDS011;63641;46.526;24.612;2023-05-07T09:28:51;3.28;;;2.67;;
75061;SDS011;63641;46.526;24.612;2023-05-07T09:31:18;2.65;;;2.45;;
75061;SDS011;63641;46.526;24.612;2023-05-07T09:33:47;2.90;;;2.60;;
75061;SDS011;63641;46.526;24.612;2023-05-07T09:36:13;3.63;;;3.10;;
75061;SDS011;63641;46.526;24.612;2023-05-07T09:38:41;4.00;;;2.60;;
75061;SDS011;63641;46.526;24.612;2023-05-07T09:41:09;2.67;;;2.47;;
75061;SDS011;63641;46.526;24.612;2023-05-07T09:43:38;3.80;;;2.75;;
75061;SDS011;63641;46.526;24.612;2023-05-07T09:46:06;4.00;;;2.45;;
75061;SDS011;63641;46.526;24.612;2023-05-07T09:48:38;3.00;;;2.67;;
75061;SDS011;63641;46.526;24.612;2023-05-07T09:51:34;3.28;;;2.60;;
75061;SDS011;63641;46.526;24.612;2023-05-07T09:54:09;3.25;;;2.30;;
75061;SDS011;63641;46.526;24.612;2023-05-07T09:56:37;2.97;;;2.60;;
75061;SDS011;63641;46.526;24.612;2023-05-07T09:59:08;3.10;;;2.65;;
75061;SDS011;63641;46.526;24.612;2023-05-07T10:01:38;2.90;;;2.60;;
75061;SDS011;63641;46.526;24.612;2023-05-07T10:04:07;2.60;;;2.40;;
75061;SDS011;63641;46.526;24.612;2023-05-07T10:06:35;2.50;;;2.30;;
75061;SDS011;63641;46.526;24.612;2023-05-07T10:09:02;2.63;;;2.40;;
75061;SDS011;63641;46.526;24.612;2023-05-07T10:11:29;3.97;;;3.55;;
75061;SDS011;63641;46.526;24.612;2023-05-07T10:13:57;2.80;;;2.60;;
75061;SDS011;63641;46.526;24.612;2023-05-07T10:16:24;3.42;;;2.78;;
75061;SDS011;63641;46.526;24.612;2023-05-07T10:18:52;4.85;;;2.35;;
75061;SDS011;63641;46.526;24.612;2023-05-07T10:21:21;2.80;;;2.58;;
75061;SDS011;63641;46.526;24.612;2023-05-07T10:23:50;4.15;;;2.70;;
75061;SDS011;63641;46.526;24.612;2023-05-07T10:26:20;3.70;;;2.70;;
75061;SDS011;63641;46.526;24.612;2023-05-07T10:28:50;3.10;;;2.75;;
75061;SDS011;63641;46.526;24.612;2023-05-07T10:33:58;3.20;;;2.78;;
75061;SDS011;63641;46.526;24.612;2023-05-07T10:36:27;2.88;;;2.53;;
75061;SDS011;63641;46.526;24.612;2023-05-07T10:38:54;2.90;;;2.70;;
75061;SDS011;63641;46.526;24.612;2023-05-07T10:41:21;2.75;;;2.55;;
75061;SDS011;63641;46.526;24.612;2023-05-07T10:43:48;3.05;;;2.75;;
75061;SDS011;63641;46.526;24.612;2023-05-07T10:46:18;3.03;;;2.75;;
75061;SDS011;63641;46.526;24.612;2023-05-07T10:51:33;3.65;;;3.30;;
75061;SDS011;63641;46.526;24.612;2023-05-07T10:56:37;4.25;;;3.08;;
75061;SDS011;63641;46.526;24.612;2023-05-07T11:01:56;3.85;;;3.03;;
75061;SDS011;63641;46.526;24.612;2023-05-07T11:04:25;3.40;;;3.10;;
75061;SDS011;63641;46.526;24.612;2023-05-07T11:07:20;3.58;;;3.17;;
75061;SDS011;63641;46.526;24.612;2023-05-07T11:15:09;3.90;;;3.17;;
75061;SDS011;63641;46.526;24.612;2023-05-07T11:17:58;3.83;;;3.05;;
75061;SDS011;63641;46.526;24.612;2023-05-07T11:28:29;4.13;;;3.53;;
75061;SDS011;63641;46.526;24.612;2023-05-07T11:30:57;5.00;;;3.90;;
75061;SDS011;63641;46.526;24.612;2023-05-07T11:33:24;4.47;;;3.72;;
75061;SDS011;63641;46.526;24.612;2023-05-07T11:35:54;5.72;;;3.70;;
75061;SDS011;63641;46.526;24.612;2023-05-07T11:38:22;3.40;;;3.10;;
75061;SDS011;63641;46.526;24.612;2023-05-07T11:40:59;3.33;;;3.03;;
75061;SDS011;63641;46.526;24.612;2023-05-07T11:43:27;3.67;;;3.38;;
75061;SDS011;63641;46.526;24.612;2023-05-07T11:45:53;3.42;;;3.13;;
75061;SDS011;63641;46.526;24.612;2023-05-07T11:48:20;3.70;;;3.40;;
75061;SDS011;63641;46.526;24.612;2023-05-07T11:50:52;4.18;;;3.78;;
75061;SDS011;63641;46.526;24.612;2023-05-07T11:53:36;4.07;;;3.33;;
75061;SDS011;63641;46.526;24.612;2023-05-07T11:56:07;3.72;;;3.42;;
75061;SDS011;63641;46.526;24.612;2023-05-07T11:58:38;3.97;;;3.67;;
75061;SDS011;63641;46.526;24.612;2023-05-07T12:01:07;3.70;;;3.40;;
75061;SDS011;63641;46.526;24.612;2023-05-07T12:03:35;5.25;;;3.95;;
75061;SDS011;63641;46.526;24.612;2023-05-07T12:06:07;3.63;;;3.33;;
75061;SDS011;63641;46.526;24.612;2023-05-07T12:08:36;3.92;;;3.53;;
75061;SDS011;63641;46.526;24.612;2023-05-07T12:11:06;3.75;;;3.45;;
75061;SDS011;63641;46.526;24.612;2023-05-07T12:13:35;4.20;;;3.80;;
75061;SDS011;63641;46.526;24.612;2023-05-07T12:16:01;4.53;;;3.45;;
75061;SDS011;63641;46.526;24.612;2023-05-07T12:18:30;4.18;;;3.20;;
75061;SDS011;63641;46.526;24.612;2023-05-07T12:20:57;3.47;;;3.17;;
75061;SDS011;63641;46.526;24.612;2023-05-07T12:23:25;3.28;;;2.97;;
75061;SDS011;63641;46.526;24.612;2023-05-07T12:25:52;4.40;;;3.45;;
75061;SDS011;63641;46.526;24.612;2023-05-07T12:28:19;5.43;;;3.80;;
75061;SDS011;63641;46.526;24.612;2023-05-07T12:30:50;3.97;;;3.53;;
75061;SDS011;63641;46.526;24.612;2023-05-07T12:33:18;4.68;;;3.67;;
75061;SDS011;63641;46.526;24.612;2023-05-07T12:35:50;3.80;;;3.50;;
75061;SDS011;63641;46.526;24.612;2023-05-07T12:38:17;3.72;;;3.42;;
75061;SDS011;63641;46.526;24.612;2023-05-07T12:40:48;3.90;;;3.60;;
75061;SDS011;63641;46.526;24.612;2023-05-07T12:43:21;4.20;;;3.80;;
75061;SDS011;63641;46.526;24.612;2023-05-07T12:45:56;4.03;;;3.63;;
75061;SDS011;63641;46.526;24.612;2023-05-07T12:48:25;3.87;;;3.33;;
75061;SDS011;63641;46.526;24.612;2023-05-07T12:50:59;4.57;;;3.65;;
75061;SDS011;63641;46.526;24.612;2023-05-07T12:53:27;3.42;;;3.13;;
75061;SDS011;63641;46.526;24.612;2023-05-07T12:55:56;4.35;;;3.53;;
75061;SDS011;63641;46.526;24.612;2023-05-07T12:58:25;4.25;;;3.92;;
75061;SDS011;63641;46.526;24.612;2023-05-07T13:00:53;3.60;;;3.30;;
75061;SDS011;63641;46.526;24.612;2023-05-07T13:03:29;4.45;;;4.05;;
75061;SDS011;63641;46.526;24.612;2023-05-07T13:05:59;3.90;;;3.60;;
75061;SDS011;63641;46.526;24.612;2023-05-07T13:08:30;4.00;;;3.60;;
75061;SDS011;63641;46.526;24.612;2023-05-07T13:10:59;4.10;;;3.78;;
75061;SDS011;63641;46.526;24.612;2023-05-07T13:13:30;4.25;;;3.90;;
75061;SDS011;63641;46.526;24.612;2023-05-07T13:15:58;4.63;;;4.22;;
75061;SDS011;63641;46.526;24.612;2023-05-07T13:18:27;4.60;;;3.80;;
75061;SDS011;63641;46.526;24.612;2023-05-07T13:20:59;4.25;;;3.83;;
75061;SDS011;63641;46.526;24.612;2023-05-07T13:23:27;3.97;;;3.45;;
75061;SDS011;63641;46.526;24.612;2023-05-07T13:25:54;4.82;;;3.63;;
75061;SDS011;63641;46.526;24.612;2023-05-07T13:28:25;3.75;;;3.45;;
75061;SDS011;63641;46.526;24.612;2023-05-07T13:30:52;5.43;;;3.55;;
75061;SDS011;63641;46.526;24.612;2023-05-07T13:33:21;4.03;;;3.63;;
75061;SDS011;63641;46.526;24.612;2023-05-07T13:35:50;3.85;;;3.55;;
75061;SDS011;63641;46.526;24.612;2023-05-07T13:38:17;3.40;;;3.00;;
75061;SDS011;63641;46.526;24.612;2023-05-07T13:40:44;3.58;;;3.28;;
75061;SDS011;63641;46.526;24.612;2023-05-07T13:43:11;3.22;;;2.92;;
75061;SDS011;63641;46.526;24.612;2023-05-07T13:45:38;3.50;;;3.20;;
75061;SDS011;63641;46.526;24.612;2023-05-07T13:48:05;3.30;;;3.00;;
75061;SDS011;63641;46.526;24.612;2023-05-07T13:50:32;3.40;;;3.10;;
75061;SDS011;63641;46.526;24.612;2023-05-07T13:52:59;3.30;;;3.00;;
75061;SDS011;63641;46.526;24.612;2023-05-07T13:55:28;3.38;;;3.08;;
75061;SDS011;63641;46.526;24.612;2023-05-07T13:57:56;3.40;;;3.05;;
75061;SDS011;63641;46.526;24.612;2023-05-07T14:00:24;3.13;;;2.83;;
75061;SDS011;63641;46.526;24.612;2023-05-07T14:02:52;3.40;;;3.10;;
75061;SDS011;63641;46.526;24.612;2023-05-07T14:05:20;3.90;;;3.00;;
75061;SDS011;63641;46.526;24.612;2023-05-07T14:07:52;2.92;;;2.60;;
75061;SDS011;63641;46.526;24.612;2023-05-07T14:10:19;3.25;;;2.95;;
75061;SDS011;63641;46.526;24.612;2023-05-07T14:12:46;8.00;;;3.10;;
75061;SDS011;63641;46.526;24.612;2023-05-07T14:15:14;3.55;;;3.25;;
75061;SDS011;63641;46.526;24.612;2023-05-07T14:17:41;3.28;;;2.97;;
75061;SDS011;63641;46.526;24.612;2023-05-07T14:20:09;3.00;;;2.80;;
75061;SDS011;63641;46.526;24.612;2023-05-07T14:22:37;3.70;;;2.72;;
75061;SDS011;63641;46.526;24.612;2023-05-07T14:25:04;3.38;;;3.08;;
75061;SDS011;63641;46.526;24.612;2023-05-07T14:27:32;3.40;;;3.10;;
75061;SDS011;63641;46.526;24.612;2023-05-07T14:29:59;3.30;;;2.90;;
75061;SDS011;63641;46.526;24.612;2023-05-07T14:32:26;3.28;;;2.97;;
75061;SDS011;63641;46.526;24.612;2023-05-07T14:34:53;3.25;;;2.90;;
75061;SDS011;63641;46.526;24.612;2023-05-07T14:37:20;3.15;;;2.88;;
75061;SDS011;63641;46.526;24.612;2023-05-07T14:39:47;5.18;;;2.97;;
75061;SDS011;63641;46.526;24.612;2023-05-07T14:42:16;3.30;;;3.00;;
75061;SDS011;63641;46.526;24.612;2023-05-07T14:44:44;2.92;;;2.63;;
75061;SDS011;63641;46.526;24.612;2023-05-07T14:47:12;2.60;;;2.40;;
75061;SDS011;63641;46.526;24.612;2023-05-07T14:49:39;2.88;;;2.65;;
75061;SDS011;63641;46.526;24.612;2023-05-07T14:52:07;3.20;;;3.00;;
75061;SDS011;63641;46.526;24.612;2023-05-07T14:54:37;3.30;;;3.05;;
75061;SDS011;63641;46.526;24.612;2023-05-07T14:57:05;2.88;;;2.67;;
75061;SDS011;63641;46.526;24.612;2023-05-07T14:59:33;3.17;;;2.92;;
75061;SDS011;63641;46.526;24.612;2023-05-07T15:01:59;3.15;;;2.85;;